Time;durP1;ratioP1;P1;durP2;ratioP2;P2;SDS_P1;SDS_P2;PMS_P1;PMS_P2;Temp;Humidity;BMP_temperature;BMP_pressure;BME280_temperature;BME280_humidity;BME280_pressure;Samples;Min_cycle;Max_cycle;Signal;HPM_P1;HPM_P2
2022/01/31 00:00:00;;;;;;;21.05;4.57;;;3.50;99.90;;;;;;5093479;28;20094;-75
2022/01/31 00:02:26;;;;;;;21.92;5.10;;;3.50;99.90;;;;;;5093289;28;20410;-75
2022/01/31 00:04:52;;;;;;;17.83;4.97;;;3.50;99.90;;;;;;5093290;28;20117;-75
2022/01/31 00:07:17;;;;;;;27.08;4.97;;;3.70;99.90;;;;;;5093336;28;20151;-75
2022/01/31 00:09:44;;;;;;;19.83;4.93;;;3.50;99.90;;;;;;5093656;28;20040;-75
2022/01/31 00:12:13;;;;;;;21.75;4.70;;;3.50;99.90;;;;;;5093347;28;20044;-75
2022/01/31 00:14:42;;;;;;;23.35;5.78;;;3.60;99.90;;;;;;5093550;28;20044;-75
2022/01/31 00:17:10;;;;;;;16.40;5.13;;;3.60;99.90;;;;;;5097113;28;20040;-75
2022/01/31 00:19:37;;;;;;;17.40;5.55;;;3.60;99.90;;;;;;5095805;28;20502;-75
2022/01/31 00:22:07;;;;;;;21.50;5.95;;;3.60;99.90;;;;;;5095891;28;20403;-74
2022/01/31 00:24:34;;;;;;;17.27;5.10;;;3.70;99.90;;;;;;5095472;28;20545;-75
2022/01/31 00:27:00;;;;;;;21.30;5.97;;;3.50;99.90;;;;;;5095933;28;20067;-75
2022/01/31 00:29:26;;;;;;;21.95;5.93;;;3.70;99.90;;;;;;5096989;28;20109;-75
2022/01/31 00:31:51;;;;;;;17.85;5.00;;;3.70;99.90;;;;;;5096815;28;20036;-75
2022/01/31 00:34:17;;;;;;;20.40;5.57;;;3.70;99.90;;;;;;5096758;28;20127;-75
2022/01/31 00:36:43;;;;;;;22.00;5.95;;;3.70;99.90;;;;;;5096760;28;20040;-75
2022/01/31 00:39:08;;;;;;;22.55;4.95;;;3.70;99.90;;;;;;5096696;28;20036;-75
2022/01/31 00:41:34;;;;;;;22.35;5.15;;;3.90;99.90;;;;;;5096525;28;20040;-75
2022/01/31 00:44:16;;;;;;;16.67;5.32;;;3.70;99.90;;;;;;5096596;28;20048;-75
2022/01/31 00:46:48;;;;;;;19.20;5.47;;;3.70;99.90;;;;;;5096419;28;20064;-75
2022/01/31 00:49:34;;;;;;;21.23;5.43;;;3.70;99.90;;;;;;5096567;28;20044;-75
2022/01/31 00:52:01;;;;;;;22.17;5.85;;;3.70;99.90;;;;;;5096725;28;20099;-75
2022/01/31 00:54:28;;;;;;;17.90;4.65;;;3.70;99.90;;;;;;5096342;28;20052;-75
2022/01/31 00:56:53;;;;;;;30.70;5.90;;;3.70;99.90;;;;;;5096285;28;20079;-75
2022/01/31 00:59:19;;;;;;;15.15;5.15;;;3.80;99.90;;;;;;5096239;28;20095;-75
2022/01/31 01:01:45;;;;;;;17.63;5.30;;;3.70;99.90;;;;;;5096129;28;20055;-75
2022/01/31 01:04:11;;;;;;;19.77;6.00;;;3.80;99.90;;;;;;5096221;28;20546;-75
2022/01/31 01:06:37;;;;;;;20.63;5.70;;;3.80;99.90;;;;;;5096143;28;20048;-75
2022/01/31 01:09:04;;;;;;;17.40;4.77;;;3.80;99.90;;;;;;5096090;28;20090;-75
2022/01/31 01:11:29;;;;;;;18.30;6.22;;;3.80;99.90;;;;;;5096016;28;20047;-75
2022/01/31 01:13:55;;;;;;;27.13;6.10;;;3.80;99.90;;;;;;5095712;28;20048;-75
2022/01/31 01:16:20;;;;;;;17.40;4.82;;;3.90;99.90;;;;;;5095945;28;20088;-75
2022/01/31 01:18:46;;;;;;;17.13;5.45;;;3.80;99.90;;;;;;5095849;28;20044;-75
2022/01/31 01:21:11;;;;;;;14.18;5.25;;;3.90;99.90;;;;;;5096190;28;20040;-75
2022/01/31 01:23:37;;;;;;;23.73;5.55;;;3.80;99.90;;;;;;5095942;28;20036;-75
2022/01/31 01:26:03;;;;;;;18.70;5.43;;;3.80;99.90;;;;;;5095776;28;20078;-75
2022/01/31 01:28:28;;;;;;;14.43;5.75;;;3.80;99.90;;;;;;5095167;28;20423;-75
2022/01/31 01:30:55;;;;;;;17.35;5.20;;;3.80;99.90;;;;;;5095735;28;20124;-75
2022/01/31 01:33:22;;;;;;;;;;;3.80;99.90;;;;;;5096027;28;20043;-75
2022/01/31 01:35:50;;;;;;;18.25;5.80;;;3.80;99.90;;;;;;5095550;28;19920;-75
2022/01/31 01:38:18;;;;;;;20.17;6.38;;;3.80;99.90;;;;;;5095504;28;20071;-75
2022/01/31 01:40:46;;;;;;;19.02;7.03;;;3.80;99.90;;;;;;5095426;28;20128;-75
2022/01/31 01:43:13;;;;;;;23.63;7.25;;;3.80;99.90;;;;;;5095280;28;20056;-75
2022/01/31 01:45:40;;;;;;;19.85;8.15;;;3.70;99.90;;;;;;5094718;28;20481;-75
2022/01/31 01:48:07;;;;;;;;;;;3.70;99.90;;;;;;5095978;28;20070;-75
2022/01/31 01:50:34;;;;;;;25.00;8.35;;;3.70;99.90;;;;;;5095277;28;19926;-75
2022/01/31 01:53:00;;;;;;;25.17;8.68;;;3.60;99.90;;;;;;5095074;28;20075;-75
2022/01/31 01:55:26;;;;;;;17.52;8.15;;;3.60;99.90;;;;;;5095168;28;20040;-75
2022/01/31 01:57:52;;;;;;;30.95;9.57;;;3.50;99.90;;;;;;5095147;28;20051;-75
2022/01/31 02:00:24;;;;;;;22.75;10.30;;;3.40;99.90;;;;;;5094903;28;20091;-74
2022/01/31 02:02:50;;;;;;;23.80;11.05;;;3.30;99.90;;;;;;5095402;28;20121;-75
2022/01/31 02:05:17;;;;;;;26.73;10.53;;;3.30;99.90;;;;;;5095007;28;20079;-75
2022/01/31 02:07:43;;;;;;;24.05;11.13;;;3.20;99.90;;;;;;5094971;28;20399;-75
2022/01/31 02:10:09;;;;;;;24.80;10.95;;;3.20;99.90;;;;;;5094888;28;20044;-75
2022/01/31 02:12:43;;;;;;;29.98;11.57;;;3.10;99.90;;;;;;5094895;28;20143;-75
2022/01/31 02:15:10;;;;;;;26.92;12.05;;;3.00;99.90;;;;;;5094751;28;20051;-75
2022/01/31 02:17:36;;;;;;;;;;;2.90;99.90;;;;;;5095155;28;20084;-75
2022/01/31 02:20:04;;;;;;;26.13;10.85;;;2.90;99.90;;;;;;5094731;28;19959;-75
2022/01/31 02:22:29;;;;;;;28.58;12.55;;;2.90;99.90;;;;;;5094446;28;20039;-75
2022/01/31 02:24:55;;;;;;;23.88;11.82;;;2.80;99.90;;;;;;5094654;28;20122;-75
2022/01/31 02:27:32;;;;;;;27.90;14.00;;;3.00;99.90;;;;;;5094491;28;20052;-75
2022/01/31 02:29:57;;;;;;;34.73;13.10;;;2.80;99.90;;;;;;5094548;28;20044;-75
2022/01/31 02:32:24;;;;;;;27.23;13.18;;;2.80;99.90;;;;;;5094713;28;20278;-75
2022/01/31 02:34:51;;;;;;;27.48;13.45;;;2.80;99.90;;;;;;5094341;28;20090;-75
2022/01/31 02:37:18;;;;;;;30.77;14.00;;;2.80;99.90;;;;;;5094267;28;20581;-75
2022/01/31 02:39:44;;;;;;;24.27;13.30;;;2.90;99.90;;;;;;5093482;28;20044;-75
2022/01/31 02:42:10;;;;;;;21.85;11.25;;;2.80;99.90;;;;;;5094279;28;20089;-75
2022/01/31 02:44:40;;;;;;;21.15;12.32;;;2.80;99.90;;;;;;5094307;28;20044;-75
2022/01/31 02:47:11;;;;;;;33.08;13.10;;;2.80;99.90;;;;;;5094360;28;20434;-75
2022/01/31 02:49:45;;;;;;;24.20;13.32;;;2.90;99.90;;;;;;5094054;28;20488;-75
2022/01/31 02:52:13;;;;;;;26.40;13.20;;;2.80;99.90;;;;;;5094435;28;20117;-75
2022/01/31 02:54:39;;;;;;;29.55;14.02;;;2.90;99.90;;;;;;5094151;28;20447;-75
2022/01/31 02:57:05;;;;;;;27.42;12.60;;;2.90;99.90;;;;;;5094095;28;20114;-75
2022/01/31 02:59:31;;;;;;;22.83;13.13;;;2.90;99.90;;;;;;5093833;28;20097;-75
2022/01/31 03:01:57;;;;;;;25.40;13.30;;;2.90;99.90;;;;;;5094201;28;20387;-75
2022/01/31 03:04:23;;;;;;;25.20;13.02;;;3.00;99.90;;;;;;5093875;28;20134;-75
2022/01/31 03:06:49;;;;;;;19.65;11.77;;;3.00;99.90;;;;;;5093984;28;20075;-75
2022/01/31 03:09:15;;;;;;;21.73;11.48;;;3.00;99.90;;;;;;5094337;28;20051;-75
2022/01/31 03:11:41;;;;;;;24.50;10.85;;;3.00;99.90;;;;;;5093893;28;20480;-75
2022/01/31 03:14:08;;;;;;;18.53;10.93;;;3.00;99.90;;;;;;5093941;28;20082;-75
2022/01/31 03:16:35;;;;;;;21.25;10.40;;;3.00;99.90;;;;;;5093725;28;20502;-75
2022/01/31 03:19:00;;;;;;;13.05;9.05;;;3.00;99.90;;;;;;5093745;28;20134;-76
2022/01/31 03:21:26;;;;;;;18.67;10.02;;;3.00;99.90;;;;;;5093773;28;20131;-75
2022/01/31 03:23:52;;;;;;;19.58;10.68;;;3.00;99.90;;;;;;5093763;28;20044;-75
2022/01/31 03:26:18;;;;;;;14.55;9.63;;;3.00;99.90;;;;;;5093795;28;20036;-75
2022/01/31 03:28:44;;;;;;;18.20;9.53;;;2.90;99.90;;;;;;5093936;28;20036;-75
2022/01/31 03:31:10;;;;;;;16.37;9.03;;;2.90;99.90;;;;;;5093787;28;20155;-75
2022/01/31 03:33:36;;;;;;;17.08;9.38;;;2.90;99.90;;;;;;5093586;28;20313;-75
2022/01/31 03:36:02;;;;;;;14.02;8.93;;;2.90;99.90;;;;;;5094186;28;20443;-75
2022/01/31 03:38:27;;;;;;;16.42;9.52;;;2.90;99.90;;;;;;5093681;28;20101;-75
2022/01/31 03:40:53;;;;;;;14.73;8.68;;;2.90;99.90;;;;;;5110074;28;20043;-75
2022/01/31 03:43:19;;;;;;;13.30;7.88;;;2.90;99.90;;;;;;5109490;28;20399;-75
2022/01/31 03:45:45;;;;;;;11.57;8.10;;;3.20;99.90;;;;;;5094062;28;20044;-75
2022/01/31 03:48:10;;;;;;;14.82;9.35;;;2.90;99.90;;;;;;5092288;28;20055;-75
2022/01/31 03:50:36;;;;;;;15.82;9.73;;;2.90;99.90;;;;;;5095383;28;20074;-75
2022/01/31 03:53:01;;;;;;;13.13;9.15;;;3.00;99.90;;;;;;5097966;28;20047;-75
2022/01/31 03:55:27;;;;;;;16.45;9.50;;;3.00;99.90;;;;;;5097544;28;20379;-75
2022/01/31 03:57:54;;;;;;;18.70;10.00;;;3.00;99.90;;;;;;5097489;28;20079;-75
2022/01/31 04:00:22;;;;;;;19.58;9.85;;;3.10;99.90;;;;;;5097591;28;20364;-75
2022/01/31 04:02:48;;;;;;;16.27;9.25;;;3.10;99.90;;;;;;5097301;28;20054;-75
2022/01/31 04:05:13;;;;;;;18.98;10.18;;;3.20;99.90;;;;;;5097303;28;20043;-75
2022/01/31 04:07:40;;;;;;;15.25;9.10;;;3.20;99.90;;;;;;5097346;28;20419;-75
2022/01/31 04:10:06;;;;;;;19.60;10.45;;;3.30;99.90;;;;;;5097243;28;20074;-75
2022/01/31 04:12:31;;;;;;;17.63;9.95;;;3.40;99.90;;;;;;5097233;28;20131;-75
2022/01/31 04:14:57;;;;;;;17.98;9.57;;;3.40;99.90;;;;;;5097107;28;20091;-75
2022/01/31 04:17:25;;;;;;;17.67;10.15;;;3.50;99.90;;;;;;5097177;28;20056;-75
2022/01/31 04:19:51;;;;;;;24.08;10.93;;;3.50;99.90;;;;;;5096956;28;20043;-75
2022/01/31 04:22:19;;;;;;;16.48;10.75;;;3.50;99.90;;;;;;5096889;28;20040;-75
2022/01/31 04:24:47;;;;;;;22.30;10.60;;;3.60;99.90;;;;;;5097081;28;20055;-75
2022/01/31 04:27:18;;;;;;;21.55;10.35;;;3.60;99.90;;;;;;5096849;28;20047;-75
2022/01/31 04:29:45;;;;;;;24.73;10.77;;;3.70;99.90;;;;;;5096998;28;20044;-75
2022/01/31 04:32:10;;;;;;;;;;;3.80;99.90;;;;;;5096859;28;20052;-75
2022/01/31 04:34:36;;;;;;;18.15;8.18;;;3.90;99.90;;;;;;5096693;28;19934;-75
2022/01/31 04:37:02;;;;;;;24.25;8.18;;;3.90;99.90;;;;;;5096736;28;20051;-75
2022/01/31 04:39:29;;;;;;;27.17;8.32;;;4.00;99.90;;;;;;5096918;28;20488;-75
2022/01/31 04:41:55;;;;;;;18.73;7.95;;;4.00;99.90;;;;;;5096585;28;20048;-75
2022/01/31 04:44:21;;;;;;;20.40;6.87;;;4.10;99.90;;;;;;5096585;28;20047;-75
2022/01/31 04:46:49;;;;;;;28.42;7.78;;;4.20;99.90;;;;;;5096530;28;20040;-75
2022/01/31 04:49:16;;;;;;;19.73;5.68;;;4.20;99.90;;;;;;5096427;28;20059;-75
2022/01/31 04:51:42;;;;;;;19.88;4.65;;;4.30;99.90;;;;;;5096494;28;20079;-75
2022/01/31 04:54:07;;;;;;;21.90;4.77;;;4.40;99.90;;;;;;5096444;28;20040;-74
2022/01/31 04:56:34;;;;;;;19.33;4.05;;;4.40;99.90;;;;;;5096338;28;20040;-76
2022/01/31 04:59:00;;;;;;;;;;;4.50;99.90;;;;;;5096876;28;20055;-75
2022/01/31 05:01:27;;;;;;;17.30;3.70;;;4.60;99.90;;;;;;5095290;28;19920;-75
2022/01/31 05:03:52;;;;;;;22.67;3.58;;;4.70;99.90;;;;;;5096208;28;20052;-75
2022/01/31 05:06:25;;;;;;;28.50;4.20;;;4.80;99.90;;;;;;5096745;28;20078;-75
2022/01/31 05:08:51;;;;;;;19.15;3.42;;;4.80;99.90;;;;;;5096167;28;20059;-75
2022/01/31 05:11:17;;;;;;;17.35;3.78;;;4.90;99.90;;;;;;5096059;28;20040;-75
2022/01/31 05:13:43;;;;;;;17.20;3.42;;;4.80;99.90;;;;;;5095971;28;20480;-75
2022/01/31 05:16:08;;;;;;;14.52;3.25;;;4.80;99.90;;;;;;5095937;28;20047;-75
2022/01/31 05:18:34;;;;;;;16.85;3.22;;;5.20;99.90;;;;;;5095975;28;20051;-75
2022/01/31 05:21:00;;;;;;;23.23;3.42;;;4.80;99.90;;;;;;5095754;28;20472;-75
2022/01/31 05:23:25;;;;;;;26.77;4.18;;;4.90;99.90;;;;;;5095792;28;20127;-75
2022/01/31 05:25:51;;;;;;;20.10;3.28;;;4.80;99.90;;;;;;5095876;28;20047;-75
2022/01/31 05:28:16;;;;;;;22.05;3.00;;;4.80;99.90;;;;;;5095732;28;20476;-75
2022/01/31 05:30:42;;;;;;;16.30;3.40;;;4.80;99.90;;;;;;5095693;28;20047;-75
2022/01/31 05:33:07;;;;;;;25.55;4.07;;;4.90;99.90;;;;;;5095279;28;20119;-75
2022/01/31 05:35:33;;;;;;;18.67;3.15;;;4.80;99.90;;;;;;5096059;28;20051;-75
2022/01/31 05:37:59;;;;;;;29.48;3.55;;;4.80;99.90;;;;;;5095608;28;20139;-75
2022/01/31 05:40:24;;;;;;;21.60;3.65;;;4.80;99.90;;;;;;5095524;28;20044;-75
2022/01/31 05:42:50;;;;;;;23.38;4.03;;;4.90;99.90;;;;;;5095395;28;20051;-75
2022/01/31 05:45:16;;;;;;;16.33;3.25;;;4.80;99.90;;;;;;5095460;28;20048;-75
2022/01/31 05:47:41;;;;;;;17.50;3.80;;;4.80;99.90;;;;;;5095319;28;20052;-76
2022/01/31 05:50:07;;;;;;;27.23;4.45;;;5.30;99.90;;;;;;5095136;28;20048;-75
2022/01/31 05:52:33;;;;;;;17.00;3.13;;;4.80;99.90;;;;;;5095175;28;20047;-75
2022/01/31 05:54:59;;;;;;;12.65;2.38;;;4.80;99.90;;;;;;5095263;28;20044;-76
2022/01/31 05:57:25;;;;;;;7.77;1.70;;;4.80;99.90;;;;;;5095405;28;20391;-76
2022/01/31 05:59:51;;;;;;;5.32;1.50;;;4.70;99.90;;;;;;5095079;28;20114;-76
2022/01/31 06:02:17;;;;;;;5.82;1.50;;;4.60;99.90;;;;;;5094707;28;20044;-75
2022/01/31 06:04:43;;;;;;;4.72;1.30;;;4.60;99.90;;;;;;5095127;28;20123;-76
2022/01/31 06:07:09;;;;;;;7.13;1.23;;;4.50;99.90;;;;;;5093856;28;20514;-75
2022/01/31 06:09:36;;;;;;;7.57;1.63;;;4.40;99.90;;;;;;5095256;28;20052;-75
2022/01/31 06:12:03;;;;;;;3.55;1.27;;;4.30;99.90;;;;;;5094883;28;20079;-75
2022/01/31 06:14:32;;;;;;;4.55;1.42;;;4.30;99.90;;;;;;5094700;28;20123;-76
2022/01/31 06:16:58;;;;;;;8.02;1.58;;;4.30;99.90;;;;;;5094478;28;20040;-76
2022/01/31 06:19:24;;;;;;;5.10;1.25;;;4.90;99.90;;;;;;5094801;28;20047;-76
2022/01/31 06:21:50;;;;;;;5.65;2.30;;;4.40;99.90;;;;;;5095033;28;20036;-76
2022/01/31 06:24:15;;;;;;;5.63;1.58;;;4.20;99.90;;;;;;5094804;28;20113;-75
2022/01/31 06:26:42;;;;;;;6.07;0.95;;;4.20;99.90;;;;;;5094725;28;20369;-75
2022/01/31 06:29:08;;;;;;;4.97;1.30;;;4.20;99.90;;;;;;5094612;28;20054;-74
2022/01/31 06:31:34;;;;;;;5.43;1.50;;;4.20;99.90;;;;;;5094239;28;20487;-75
2022/01/31 06:34:00;;;;;;;5.53;1.58;;;4.20;99.90;;;;;;5094531;28;20476;-75
2022/01/31 06:36:26;;;;;;;10.70;1.75;;;4.10;99.90;;;;;;5094805;28;20127;-75
2022/01/31 06:38:51;;;;;;;10.00;2.08;;;4.20;99.90;;;;;;5094710;28;20451;-75
2022/01/31 06:41:18;;;;;;;6.35;1.55;;;4.20;99.90;;;;;;5094295;28;20094;-76
2022/01/31 06:43:45;;;;;;;8.50;1.98;;;4.20;99.90;;;;;;5094237;28;20052;-75
2022/01/31 06:46:12;;;;;;;8.57;2.25;;;4.20;99.90;;;;;;5094245;28;20089;-75
2022/01/31 06:48:37;;;;;;;;;;;4.20;99.90;;;;;;5094645;28;20047;-75
2022/01/31 06:51:03;;;;;;;9.52;1.75;;;4.20;99.90;;;;;;5094206;28;19920;-75
2022/01/31 06:53:29;;;;;;;11.93;1.92;;;4.20;99.90;;;;;;5094173;28;20079;-75
2022/01/31 06:55:56;;;;;;;8.25;1.77;;;4.20;99.90;;;;;;5094327;28;20086;-75
2022/01/31 06:58:22;;;;;;;12.95;1.98;;;4.20;99.90;;;;;;5094098;28;20055;-75
2022/01/31 07:00:48;;;;;;;12.67;2.00;;;;;;;;;;5093966;28;20135;-75
2022/01/31 07:03:14;;;;;;;9.80;2.03;;;4.30;99.90;;;;;;5093534;28;20538;-76
2022/01/31 07:05:41;;;;;;;10.88;2.40;;;4.30;99.90;;;;;;5094013;28;20044;-75
2022/01/31 07:08:06;;;;;;;15.57;2.38;;;4.30;99.90;;;;;;5093988;28;20365;-76
2022/01/31 07:10:33;;;;;;;18.42;2.35;;;4.30;99.90;;;;;;5093003;28;20043;-76
2022/01/31 07:13:01;;;;;;;13.82;2.63;;;4.40;99.90;;;;;;5093712;28;20093;-75
2022/01/31 07:15:27;;;;;;;15.30;2.67;;;4.40;99.90;;;;;;5093737;28;20052;-76
2022/01/31 07:17:52;;;;;;;20.63;3.03;;;4.40;99.90;;;;;;5093797;28;20127;-76
2022/01/31 07:20:24;;;;;;;14.60;2.40;;;4.50;99.90;;;;;;5093855;28;20036;-76
2022/01/31 07:22:57;;;;;;;18.40;2.50;;;4.50;99.90;;;;;;5094023;28;20388;-76
2022/01/31 07:25:34;;;;;;;14.13;2.30;;;4.50;99.90;;;;;;5093162;28;20055;-76
2022/01/31 07:28:01;;;;;;;16.80;2.67;;;4.50;99.90;;;;;;5093448;28;20095;-75
2022/01/31 07:30:27;;;;;;;15.77;2.45;;;4.50;99.90;;;;;;5093661;28;20052;-77
2022/01/31 07:32:53;;;;;;;17.70;2.22;;;4.50;99.90;;;;;;5093646;28;20047;-75
2022/01/31 07:35:19;;;;;;;19.80;2.47;;;4.50;99.90;;;;;;5093631;28;20040;-75
2022/01/31 07:37:44;;;;;;;9.80;1.85;;;4.50;99.90;;;;;;5093758;28;20087;-74
2022/01/31 07:40:10;;;;;;;13.05;2.17;;;4.50;99.90;;;;;;5093420;28;20392;-76
2022/01/31 07:42:36;;;;;;;10.10;1.80;;;4.60;99.90;;;;;;5093439;28;20109;-76
2022/01/31 07:45:02;;;;;;;7.05;1.70;;;4.60;99.90;;;;;;5093583;28;20491;-76
2022/01/31 07:47:29;;;;;;;7.77;1.87;;;4.60;99.90;;;;;;5093922;28;20392;-75
2022/01/31 07:49:54;;;;;;;4.43;1.30;;;4.60;99.90;;;;;;5093541;28;20285;-75
2022/01/31 07:52:20;;;;;;;8.20;1.40;;;4.60;99.90;;;;;;5091773;28;20036;-76
2022/01/31 07:54:46;;;;;;;7.68;1.60;;;4.70;99.90;;;;;;5075239;28;20040;-76
2022/01/31 07:57:11;;;;;;;7.88;1.52;;;4.60;99.90;;;;;;5093089;28;20093;-76
2022/01/31 07:59:37;;;;;;;7.97;1.50;;;4.60;99.90;;;;;;5091723;28;20093;-77
2022/01/31 08:02:03;;;;;;;5.95;1.48;;;4.60;99.90;;;;;;5092926;28;20048;-77
2022/01/31 08:04:28;;;;;;;7.25;1.52;;;4.60;99.90;;;;;;5093285;28;20101;-77
2022/01/31 08:06:54;;;;;;;6.55;1.70;;;4.60;99.90;;;;;;5093031;28;20446;-76
2022/01/31 08:09:19;;;;;;;6.75;1.48;;;4.60;99.90;;;;;;5091970;28;20051;-77
2022/01/31 08:11:45;;;;;;;9.52;2.30;;;4.60;99.90;;;;;;5091757;28;20048;-76
2022/01/31 08:14:13;;;;;;;11.07;2.88;;;4.60;99.90;;;;;;5091996;28;20055;-74
2022/01/31 08:16:39;;;;;;;7.85;1.73;;;4.60;99.90;;;;;;5093079;28;20119;-77
2022/01/31 08:19:08;;;;;;;12.48;2.10;;;4.60;99.90;;;;;;5092985;28;20054;-77
2022/01/31 08:21:34;;;;;;;6.90;1.80;;;4.60;99.90;;;;;;5092639;28;20054;-78
2022/01/31 08:23:59;;;;;;;9.75;1.67;;;4.70;99.90;;;;;;5092580;28;20044;-75
2022/01/31 08:26:25;;;;;;;12.05;1.70;;;4.70;99.90;;;;;;5092607;28;20105;-76
2022/01/31 08:29:00;;;;;;;7.72;2.00;;;4.70;99.90;;;;;;5091793;28;20428;-75
2022/01/31 08:31:35;;;;;;;10.02;2.20;;;4.70;99.90;;;;;;5092556;28;20040;-77
2022/01/31 08:34:18;;;;;;;8.98;2.13;;;4.70;99.90;;;;;;5091842;28;20048;-76
2022/01/31 08:36:45;;;;;;;8.98;2.00;;;4.80;99.90;;;;;;5092428;28;20119;-74
2022/01/31 08:39:17;;;;;;;10.88;1.73;;;4.80;99.90;;;;;;5095918;28;20052;-76
2022/01/31 08:41:44;;;;;;;11.60;1.88;;;4.80;99.90;;;;;;5096207;28;20130;-73
2022/01/31 08:44:11;;;;;;;12.75;2.10;;;4.90;99.90;;;;;;5096357;28;20529;-75
2022/01/31 08:46:39;;;;;;;15.68;2.25;;;4.90;99.90;;;;;;5096082;28;20036;-72
2022/01/31 08:49:05;;;;;;;12.65;2.30;;;4.90;99.90;;;;;;5096107;28;20134;-73
2022/01/31 08:51:31;;;;;;;7.80;1.77;;;5.00;99.90;;;;;;5096095;28;20055;-76
2022/01/31 08:53:57;;;;;;;9.82;2.45;;;5.10;99.90;;;;;;5095864;28;20044;-74
2022/01/31 08:56:22;;;;;;;10.63;3.03;;;5.10;99.90;;;;;;5096211;28;20052;-74
2022/01/31 08:58:48;;;;;;;8.85;2.30;;;5.20;99.90;;;;;;5095216;28;20093;-74
2022/01/31 09:01:20;;;;;;;10.98;2.20;;;5.20;99.90;;;;;;5095980;28;20549;-73
2022/01/31 09:06:22;;;;;;;11.45;2.45;;;5.20;99.90;;;;;;5094580;28;20412;-75
2022/01/31 09:08:47;;;;;;;11.75;2.40;;;5.30;99.90;;;;;;5095745;28;20177;-74
2022/01/31 09:11:13;;;;;;;9.98;2.15;;;5.30;99.90;;;;;;5092182;28;20131;-75
2022/01/31 09:13:39;;;;;;;10.13;2.13;;;5.40;99.90;;;;;;5094604;28;20066;-74
2022/01/31 09:16:06;;;;;;;10.03;2.47;;;5.40;99.90;;;;;;5095628;28;20044;-75
2022/01/31 09:18:31;;;;;;;13.60;2.53;;;5.50;99.90;;;;;;5095500;28;20278;-74
2022/01/31 09:20:58;;;;;;;9.10;2.33;;;5.50;99.90;;;;;;5095306;28;20069;-75
2022/01/31 09:23:25;;;;;;;9.93;2.42;;;5.60;99.90;;;;;;5094990;28;20046;-74
2022/01/31 09:25:51;;;;;;;12.27;2.22;;;5.60;99.90;;;;;;5095228;28;20407;-74
2022/01/31 09:28:16;;;;;;;11.35;2.10;;;5.60;99.90;;;;;;5095433;28;20032;-75
2022/01/31 09:30:44;;;;;;;11.80;2.20;;;5.70;99.90;;;;;;5093904;28;20043;-74
2022/01/31 09:33:11;;;;;;;8.85;1.90;;;5.70;99.90;;;;;;5094616;28;20044;-75
2022/01/31 09:35:36;;;;;;;7.78;2.10;;;5.90;99.90;;;;;;5094300;28;20048;-74
2022/01/31 09:38:03;;;;;;;8.32;2.42;;;5.80;99.90;;;;;;5093291;28;20529;-74
2022/01/31 09:40:29;;;;;;;9.68;1.95;;;5.80;99.90;;;;;;5093100;28;20040;-74
2022/01/31 09:51:03;;;;;;;6.07;1.92;;;5.90;99.90;;;;;;5094867;28;20059;-75
2022/01/31 09:53:31;;;;;;;10.90;1.90;;;5.90;99.90;;;;;;5094620;28;20047;-74
2022/01/31 09:55:57;;;;;;;14.05;2.22;;;5.90;99.90;;;;;;5093425;28;20051;-74
2022/01/31 09:58:29;;;;;;;10.60;2.30;;;5.90;99.90;;;;;;5094685;28;20150;-74
2022/01/31 10:01:13;;;;;;;9.13;1.83;;;6.00;99.90;;;;;;5094308;28;20090;-75
2022/01/31 10:03:57;;;;;;;9.35;1.88;;;6.10;99.90;;;;;;5094320;28;20040;-74
2022/01/31 10:06:27;;;;;;;12.60;2.03;;;6.20;99.90;;;;;;5094353;28;20377;-75
2022/01/31 10:09:08;;;;;;;12.35;2.25;;;6.30;99.90;;;;;;5093614;28;20048;-74
2022/01/31 10:11:57;;;;;;;8.82;1.80;;;6.20;99.90;;;;;;5093426;28;20404;-73
2022/01/31 10:17:42;;;;;;;9.73;1.70;;;6.40;99.90;;;;;;5093936;28;20044;-75
2022/01/31 10:20:10;;;;;;;7.53;2.08;;;6.50;99.90;;;;;;5092112;28;20143;-74
2022/01/31 10:22:38;;;;;;;9.98;2.28;;;6.40;99.90;;;;;;5093482;28;20058;-75
2022/01/31 10:25:09;;;;;;;8.73;2.33;;;6.50;99.90;;;;;;5093358;28;20175;-73
2022/01/31 10:27:36;;;;;;;14.15;2.72;;;6.40;99.90;;;;;;5093732;28;20048;-74
2022/01/31 10:30:07;;;;;;;;;;;6.40;99.90;;;;;;5093610;28;20492;-74
2022/01/31 10:32:35;;;;;;;9.00;1.75;;;6.40;99.90;;;;;;5093652;28;19973;-73
2022/01/31 10:35:05;;;;;;;9.23;1.67;;;6.40;99.90;;;;;;5093241;28;20051;-74
2022/01/31 10:37:33;;;;;;;8.57;2.03;;;6.40;99.90;;;;;;5093704;28;20126;-73
2022/01/31 10:46:06;;;;;;;12.10;2.75;;;6.50;99.90;;;;;;5092243;28;20060;-74
2022/01/31 10:56:36;;;;;;;7.55;1.55;;;6.90;99.90;;;;;;5092943;28;20074;-75
2022/01/31 10:59:19;;;;;;;10.82;1.92;;;6.90;99.90;;;;;;5092763;28;20130;-75
2022/01/31 11:01:50;;;;;;;7.80;1.90;;;7.00;99.90;;;;;;5092821;28;20093;-76
2022/01/31 11:04:16;;;;;;;10.15;1.73;;;7.10;99.90;;;;;;5092710;28;20408;-76
2022/01/31 11:06:44;;;;;;;13.52;2.00;;;7.10;99.90;;;;;;5093187;28;20040;-77
2022/01/31 11:09:12;;;;;;;8.82;1.92;;;7.10;99.90;;;;;;5093409;28;20039;-75
2022/01/31 11:11:40;;;;;;;7.88;1.40;;;7.00;99.90;;;;;;5093049;28;20044;-75
2022/01/31 11:14:08;;;;;;;7.93;1.75;;;6.90;99.90;;;;;;5093289;28;20051;-76
2022/01/31 11:16:34;;;;;;;;;;;6.90;99.90;;;;;;5093913;28;20476;-74
2022/01/31 11:19:06;;;;;;;7.63;1.92;;;6.80;99.90;;;;;;5093333;28;19924;-75
2022/01/31 11:21:34;;;;;;;8.57;1.90;;;6.80;99.90;;;;;;5092978;28;20036;-74
2022/01/31 11:24:04;;;;;;;7.03;2.00;;;6.80;99.90;;;;;;5093022;28;20048;-78
2022/01/31 11:26:39;;;;;;;12.02;1.60;;;6.80;99.90;;;;;;5073509;28;20047;-74
2022/01/31 11:29:08;;;;;;;7.57;1.92;;;6.80;99.90;;;;;;5093462;28;20131;-76
2022/01/31 11:31:39;;;;;;;17.27;2.22;;;6.80;99.90;;;;;;5092492;28;20052;-77
2022/01/31 11:34:06;;;;;;;9.88;2.00;;;6.90;99.90;;;;;;5093375;28;20040;-77
2022/01/31 11:36:34;;;;;;;8.77;2.55;;;7.00;99.90;;;;;;5093217;28;20040;-76
2022/01/31 11:39:00;;;;;;;10.18;1.92;;;7.00;99.90;;;;;;5092891;28;20549;-78
2022/01/31 11:41:26;;;;;;;11.23;2.40;;;7.20;99.90;;;;;;5093040;28;20044;-75
2022/01/31 11:43:59;;;;;;;13.80;2.30;;;7.30;99.90;;;;;;5091592;28;20051;-74
2022/01/31 11:46:27;;;;;;;8.55;1.65;;;7.50;99.90;;;;;;5093018;28;20306;-76
2022/01/31 11:48:53;;;;;;;6.28;1.70;;;7.60;99.90;;;;;;5092850;28;20071;-75
2022/01/31 11:51:20;;;;;;;7.35;2.00;;;7.80;99.90;;;;;;5092558;28;20499;-75
2022/01/31 11:53:47;;;;;;;8.70;1.63;;;7.90;99.90;;;;;;5093197;28;20051;-75
2022/01/31 11:56:20;;;;;;;8.07;2.00;;;8.10;99.90;;;;;;5093063;28;20044;-76
2022/01/31 11:58:52;;;;;;;9.05;2.05;;;8.20;99.90;;;;;;5092933;28;20086;-75
2022/01/31 12:01:23;;;;;;;13.60;2.47;;;8.20;99.90;;;;;;5091981;28;20052;-75
2022/01/31 12:03:59;;;;;;;7.45;1.73;;;8.20;99.90;;;;;;5087950;28;20055;-78
2022/01/31 12:06:27;;;;;;;10.68;2.20;;;8.20;99.90;;;;;;5077972;28;20075;-75
2022/01/31 12:08:54;;;;;;;12.95;2.20;;;8.20;99.90;;;;;;5078559;28;20055;-76
2022/01/31 12:11:26;;;;;;;;;;;8.20;99.90;;;;;;5092794;28;20036;-74
2022/01/31 12:14:08;;;;;;;17.73;2.58;;;8.20;99.90;;;;;;5095595;28;20276;-76
2022/01/31 12:16:50;;;;;;;10.73;2.58;;;8.10;99.90;;;;;;5090837;28;20061;-78
2022/01/31 12:22:12;;;;;;;11.80;2.33;;;8.10;99.90;;;;;;5096081;28;20137;-74
2022/01/31 12:24:46;;;;;;;11.55;2.33;;;8.10;99.90;;;;;;5096608;28;20044;-75
2022/01/31 12:27:20;;;;;;;9.63;2.08;;;8.10;99.90;;;;;;5096320;28;20059;-74
2022/01/31 12:29:50;;;;;;;15.13;2.13;;;8.10;99.90;;;;;;5096039;28;20123;-73
2022/01/31 12:32:23;;;;;;;10.98;2.22;;;8.10;99.90;;;;;;5095706;28;20044;-73
2022/01/31 12:34:50;;;;;;;10.68;2.03;;;8.00;99.90;;;;;;5096276;28;20533;-76
2022/01/31 12:37:22;;;;;;;15.32;2.55;;;8.00;99.90;;;;;;5095694;28;20059;-75
2022/01/31 12:39:58;;;;;;;10.73;2.17;;;8.10;99.90;;;;;;5096253;28;20126;-75
2022/01/31 12:45:39;;;;;;;14.25;2.50;;;8.10;99.90;;;;;;5081909;28;20135;-72
2022/01/31 12:48:12;;;;;;;10.77;2.10;;;8.10;99.90;;;;;;5095953;28;20135;-76
2022/01/31 12:50:53;;;;;;;13.30;2.72;;;8.10;99.90;;;;;;5095662;28;20101;-73
2022/01/31 12:53:27;;;;;;;15.32;3.22;;;8.10;99.90;;;;;;5095467;28;20527;-77
2022/01/31 12:56:09;;;;;;;9.18;2.28;;;8.10;99.90;;;;;;5096109;28;20047;-73
2022/01/31 12:58:36;;;;;;;20.83;2.65;;;8.10;99.90;;;;;;5095754;28;20051;-76
2022/01/31 13:01:10;;;;;;;;;;;8.10;99.90;;;;;;5095890;28;20126;-72
2022/01/31 13:03:36;;;;;;;13.27;3.15;;;8.10;99.90;;;;;;5095703;28;19970;-75
2022/01/31 13:06:02;;;;;;;13.50;2.22;;;8.00;99.90;;;;;;5095780;28;20048;-73
2022/01/31 13:08:28;;;;;;;12.27;2.83;;;7.90;99.90;;;;;;5095758;28;20083;-73
2022/01/31 13:10:55;;;;;;;15.45;3.08;;;7.80;99.90;;;;;;5094939;28;20091;-73
2022/01/31 13:13:31;;;;;;;13.98;2.67;;;7.80;99.90;;;;;;5095451;28;20040;-74
2022/01/31 13:16:07;;;;;;;9.35;2.25;;;7.80;99.90;;;;;;5094110;28;20498;-76
2022/01/31 13:18:34;;;;;;;12.93;2.47;;;7.80;99.90;;;;;;5095528;28;20047;-75
2022/01/31 13:21:05;;;;;;;12.93;2.80;;;7.70;99.90;;;;;;5094943;28;20040;-73
2022/01/31 13:23:34;;;;;;;15.45;2.63;;;7.80;99.90;;;;;;5094453;28;20048;-73
2022/01/31 13:26:05;;;;;;;20.77;2.85;;;7.80;99.90;;;;;;5095374;28;20051;-74